sensor_id;sensor_type;location;lat;lon;timestamp;pressure;altitude;pressure_sealevel;temperature
25514;BMP180;48128;54.242;10.280;2022-10-18T00:00:38;101942.00;;;13.10
25514;BMP180;48128;54.242;10.280;2022-10-18T00:03:05;101931.00;;;13.10
25514;BMP180;48128;54.242;10.280;2022-10-18T00:05:32;101935.00;;;13.10
25514;BMP180;48128;54.242;10.280;2022-10-18T00:07:59;101939.00;;;13.10
25514;BMP180;48128;54.242;10.280;2022-10-18T00:10:26;101936.00;;;13.10
25514;BMP180;48128;54.242;10.280;2022-10-18T00:12:53;101932.00;;;13.10
25514;BMP180;48128;54.242;10.280;2022-10-18T00:15:20;101931.00;;;13.00
25514;BMP180;48128;54.242;10.280;2022-10-18T00:17:47;101934.00;;;13.00
25514;BMP180;48128;54.242;10.280;2022-10-18T00:20:13;101931.00;;;13.00
25514;BMP180;48128;54.242;10.280;2022-10-18T00:22:40;101937.00;;;12.90
25514;BMP180;48128;54.242;10.280;2022-10-18T00:25:08;101939.00;;;12.90
25514;BMP180;48128;54.242;10.280;2022-10-18T00:27:35;101948.00;;;12.90
25514;BMP180;48128;54.242;10.280;2022-10-18T00:30:03;101941.00;;;12.80
25514;BMP180;48128;54.242;10.280;2022-10-18T00:32:33;101936.00;;;12.80
25514;BMP180;48128;54.242;10.280;2022-10-18T00:35:01;101944.00;;;12.80
25514;BMP180;48128;54.242;10.280;2022-10-18T00:37:27;101938.00;;;12.80
25514;BMP180;48128;54.242;10.280;2022-10-18T00:39:54;101946.00;;;12.80
25514;BMP180;48128;54.242;10.280;2022-10-18T00:42:22;101952.00;;;12.80
25514;BMP180;48128;54.242;10.280;2022-10-18T00:47:17;101953.00;;;12.80
25514;BMP180;48128;54.242;10.280;2022-10-18T00:49:52;101961.00;;;12.90
25514;BMP180;48128;54.242;10.280;2022-10-18T00:52:23;101962.00;;;12.90
25514;BMP180;48128;54.242;10.280;2022-10-18T00:54:51;101954.00;;;12.90
25514;BMP180;48128;54.242;10.280;2022-10-18T00:57:18;101958.00;;;13.00
25514;BMP180;48128;54.242;10.280;2022-10-18T00:59:45;101969.00;;;13.00
25514;BMP180;48128;54.242;10.280;2022-10-18T01:02:13;101961.00;;;13.00
25514;BMP180;48128;54.242;10.280;2022-10-18T01:04:45;101962.00;;;13.00
25514;BMP180;48128;54.242;10.280;2022-10-18T01:15:58;101979.00;;;13.00
25514;BMP180;48128;54.242;10.280;2022-10-18T01:27:12;101975.00;;;13.00
25514;BMP180;48128;54.242;10.280;2022-10-18T01:29:54;101968.00;;;13.00
25514;BMP180;48128;54.242;10.280;2022-10-18T01:32:34;101975.00;;;12.90
25514;BMP180;48128;54.242;10.280;2022-10-18T01:35:06;101982.00;;;12.90
25514;BMP180;48128;54.242;10.280;2022-10-18T01:37:34;101986.00;;;12.90
25514;BMP180;48128;54.242;10.280;2022-10-18T01:40:03;101981.00;;;12.90
25514;BMP180;48128;54.242;10.280;2022-10-18T01:42:32;101974.00;;;12.90
25514;BMP180;48128;54.242;10.280;2022-10-18T01:45:00;101961.00;;;12.90
25514;BMP180;48128;54.242;10.280;2022-10-18T01:47:28;101969.00;;;12.90
25514;BMP180;48128;54.242;10.280;2022-10-18T01:49:58;101961.00;;;12.90
25514;BMP180;48128;54.242;10.280;2022-10-18T01:52:25;101962.00;;;12.90
25514;BMP180;48128;54.242;10.280;2022-10-18T01:54:52;101961.00;;;12.80
25514;BMP180;48128;54.242;10.280;2022-10-18T01:57:29;101969.00;;;12.90
25514;BMP180;48128;54.242;10.280;2022-10-18T02:00:22;101970.00;;;12.80
25514;BMP180;48128;54.242;10.280;2022-10-18T02:11:12;101971.00;;;12.70
25514;BMP180;48128;54.242;10.280;2022-10-18T02:13:47;101961.00;;;12.60
25514;BMP180;48128;54.242;10.280;2022-10-18T02:16:36;101969.00;;;12.60
25514;BMP180;48128;54.242;10.280;2022-10-18T02:19:09;101978.00;;;12.50
25514;BMP180;48128;54.242;10.280;2022-10-18T02:21:41;101985.00;;;12.50
25514;BMP180;48128;54.242;10.280;2022-10-18T02:24:11;101980.00;;;12.50
25514;BMP180;48128;54.242;10.280;2022-10-18T02:26:39;101975.00;;;12.40
25514;BMP180;48128;54.242;10.280;2022-10-18T02:29:06;101972.00;;;12.40
25514;BMP180;48128;54.242;10.280;2022-10-18T02:31:44;101982.00;;;12.30
25514;BMP180;48128;54.242;10.280;2022-10-18T02:34:27;101976.00;;;12.30
25514;BMP180;48128;54.242;10.280;2022-10-18T02:37:00;101971.00;;;12.30
25514;BMP180;48128;54.242;10.280;2022-10-18T02:39:35;101965.00;;;12.30
25514;BMP180;48128;54.242;10.280;2022-10-18T02:42:03;101971.00;;;12.30
25514;BMP180;48128;54.242;10.280;2022-10-18T02:44:33;101966.00;;;12.30
25514;BMP180;48128;54.242;10.280;2022-10-18T02:47:00;101976.00;;;12.30
25514;BMP180;48128;54.242;10.280;2022-10-18T02:49:27;101972.00;;;12.30
25514;BMP180;48128;54.242;10.280;2022-10-18T02:51:55;101973.00;;;12.40
25514;BMP180;48128;54.242;10.280;2022-10-18T02:54:22;101969.00;;;12.40
25514;BMP180;48128;54.242;10.280;2022-10-18T02:56:49;101978.00;;;12.40
25514;BMP180;48128;54.242;10.280;2022-10-18T02:59:16;101971.00;;;12.40
25514;BMP180;48128;54.242;10.280;2022-10-18T03:01:43;101972.00;;;12.40
25514;BMP180;48128;54.242;10.280;2022-10-18T03:04:10;101977.00;;;12.40
25514;BMP180;48128;54.242;10.280;2022-10-18T03:06:37;101965.00;;;12.50
25514;BMP180;48128;54.242;10.280;2022-10-18T03:09:04;101972.00;;;12.50
25514;BMP180;48128;54.242;10.280;2022-10-18T03:11:31;101977.00;;;12.50
25514;BMP180;48128;54.242;10.280;2022-10-18T03:13:58;101966.00;;;12.50
25514;BMP180;48128;54.242;10.280;2022-10-18T03:16:25;101966.00;;;12.50
25514;BMP180;48128;54.242;10.280;2022-10-18T03:18:52;101962.00;;;12.60
25514;BMP180;48128;54.242;10.280;2022-10-18T03:21:18;101972.00;;;12.60
25514;BMP180;48128;54.242;10.280;2022-10-18T03:23:45;101962.00;;;12.60
25514;BMP180;48128;54.242;10.280;2022-10-18T03:26:12;101967.00;;;12.60
25514;BMP180;48128;54.242;10.280;2022-10-18T03:28:39;101957.00;;;12.60
25514;BMP180;48128;54.242;10.280;2022-10-18T03:31:06;101948.00;;;12.60
25514;BMP180;48128;54.242;10.280;2022-10-18T03:33:33;101961.00;;;12.60
25514;BMP180;48128;54.242;10.280;2022-10-18T03:35:59;101973.00;;;12.70
25514;BMP180;48128;54.242;10.280;2022-10-18T03:41:44;101958.00;;;12.70
25514;BMP180;48128;54.242;10.280;2022-10-18T03:44:10;101960.00;;;12.80
25514;BMP180;48128;54.242;10.280;2022-10-18T03:46:37;101948.00;;;12.80
25514;BMP180;48128;54.242;10.280;2022-10-18T03:49:04;101952.00;;;12.80
25514;BMP180;48128;54.242;10.280;2022-10-18T03:51:31;101959.00;;;12.80
25514;BMP180;48128;54.242;10.280;2022-10-18T03:53:59;101960.00;;;12.80
25514;BMP180;48128;54.242;10.280;2022-10-18T03:56:26;101963.00;;;12.80
25514;BMP180;48128;54.242;10.280;2022-10-18T03:58:53;101971.00;;;12.80
25514;BMP180;48128;54.242;10.280;2022-10-18T04:01:19;101971.00;;;12.90
25514;BMP180;48128;54.242;10.280;2022-10-18T04:03:46;101978.00;;;12.90
25514;BMP180;48128;54.242;10.280;2022-10-18T04:06:13;101974.00;;;12.90
25514;BMP180;48128;54.242;10.280;2022-10-18T04:08:40;101979.00;;;12.90
25514;BMP180;48128;54.242;10.280;2022-10-18T04:11:07;101980.00;;;12.90
25514;BMP180;48128;54.242;10.280;2022-10-18T04:13:34;101974.00;;;12.90
25514;BMP180;48128;54.242;10.280;2022-10-18T04:16:01;101963.00;;;12.90
25514;BMP180;48128;54.242;10.280;2022-10-18T04:18:28;101959.00;;;12.90
25514;BMP180;48128;54.242;10.280;2022-10-18T04:20:55;101943.00;;;12.90
25514;BMP180;48128;54.242;10.280;2022-10-18T04:23:22;101949.00;;;12.80
25514;BMP180;48128;54.242;10.280;2022-10-18T04:25:49;101953.00;;;12.80
25514;BMP180;48128;54.242;10.280;2022-10-18T04:28:16;101946.00;;;12.80
25514;BMP180;48128;54.242;10.280;2022-10-18T04:30:49;101946.00;;;12.80
25514;BMP180;48128;54.242;10.280;2022-10-18T04:33:16;101936.00;;;12.80
25514;BMP180;48128;54.242;10.280;2022-10-18T04:35:43;101953.00;;;12.70
25514;BMP180;48128;54.242;10.280;2022-10-18T04:38:10;101944.00;;;12.70
25514;BMP180;48128;54.242;10.280;2022-10-18T04:40:37;101944.00;;;12.70
25514;BMP180;48128;54.242;10.280;2022-10-18T04:43:03;101952.00;;;12.60
25514;BMP180;48128;54.242;10.280;2022-10-18T04:45:30;101936.00;;;12.60
25514;BMP180;48128;54.242;10.280;2022-10-18T04:47:57;101943.00;;;12.60
25514;BMP180;48128;54.242;10.280;2022-10-18T04:50:24;101938.00;;;12.60
25514;BMP180;48128;54.242;10.280;2022-10-18T04:52:51;101947.00;;;12.60
25514;BMP180;48128;54.242;10.280;2022-10-18T04:55:19;101940.00;;;12.60
25514;BMP180;48128;54.242;10.280;2022-10-18T04:57:46;101939.00;;;12.50
25514;BMP180;48128;54.242;10.280;2022-10-18T05:00:13;101943.00;;;12.60
25514;BMP180;48128;54.242;10.280;2022-10-18T05:02:42;101944.00;;;12.60
25514;BMP180;48128;54.242;10.280;2022-10-18T05:05:09;101945.00;;;12.60
25514;BMP180;48128;54.242;10.280;2022-10-18T05:07:39;101935.00;;;12.60
25514;BMP180;48128;54.242;10.280;2022-10-18T05:10:06;101944.00;;;12.50
25514;BMP180;48128;54.242;10.280;2022-10-18T05:12:33;101941.00;;;12.60
25514;BMP180;48128;54.242;10.280;2022-10-18T05:15:00;101936.00;;;12.50
25514;BMP180;48128;54.242;10.280;2022-10-18T05:17:27;101936.00;;;12.50
25514;BMP180;48128;54.242;10.280;2022-10-18T05:19:54;101928.00;;;12.50
25514;BMP180;48128;54.242;10.280;2022-10-18T05:22:21;101933.00;;;12.50
25514;BMP180;48128;54.242;10.280;2022-10-18T05:24:48;101938.00;;;12.50
25514;BMP180;48128;54.242;10.280;2022-10-18T05:27:14;101940.00;;;12.50
25514;BMP180;48128;54.242;10.280;2022-10-18T05:29:41;101935.00;;;12.50
25514;BMP180;48128;54.242;10.280;2022-10-18T05:32:08;101938.00;;;12.50
25514;BMP180;48128;54.242;10.280;2022-10-18T05:34:35;101929.00;;;12.50
25514;BMP180;48128;54.242;10.280;2022-10-18T05:37:02;101925.00;;;12.50
25514;BMP180;48128;54.242;10.280;2022-10-18T05:39:29;101926.00;;;12.40
25514;BMP180;48128;54.242;10.280;2022-10-18T05:41:55;101926.00;;;12.40
25514;BMP180;48128;54.242;10.280;2022-10-18T05:44:23;101930.00;;;12.40
25514;BMP180;48128;54.242;10.280;2022-10-18T05:46:50;101929.00;;;12.40
25514;BMP180;48128;54.242;10.280;2022-10-18T05:49:17;101919.00;;;12.40
25514;BMP180;48128;54.242;10.280;2022-10-18T05:51:44;101921.00;;;12.30
25514;BMP180;48128;54.242;10.280;2022-10-18T05:54:11;101912.00;;;12.30
25514;BMP180;48128;54.242;10.280;2022-10-18T05:56:38;101909.00;;;12.30
25514;BMP180;48128;54.242;10.280;2022-10-18T05:59:06;101901.00;;;12.20
25514;BMP180;48128;54.242;10.280;2022-10-18T06:01:41;101917.00;;;12.20
25514;BMP180;48128;54.242;10.280;2022-10-18T06:04:08;101923.00;;;12.20
25514;BMP180;48128;54.242;10.280;2022-10-18T06:06:38;101927.00;;;12.20
25514;BMP180;48128;54.242;10.280;2022-10-18T06:09:06;101936.00;;;12.10
25514;BMP180;48128;54.242;10.280;2022-10-18T06:11:34;101940.00;;;12.10
25514;BMP180;48128;54.242;10.280;2022-10-18T06:14:01;101931.00;;;12.10
25514;BMP180;48128;54.242;10.280;2022-10-18T06:16:28;101943.00;;;12.00
25514;BMP180;48128;54.242;10.280;2022-10-18T06:18:58;101947.00;;;12.10
25514;BMP180;48128;54.242;10.280;2022-10-18T06:21:25;101946.00;;;12.00
25514;BMP180;48128;54.242;10.280;2022-10-18T06:23:57;101951.00;;;12.00
25514;BMP180;48128;54.242;10.280;2022-10-18T06:26:25;101962.00;;;12.00
25514;BMP180;48128;54.242;10.280;2022-10-18T06:28:52;101965.00;;;12.00
25514;BMP180;48128;54.242;10.280;2022-10-18T06:31:19;101979.00;;;12.00
25514;BMP180;48128;54.242;10.280;2022-10-18T06:33:47;101975.00;;;12.00
25514;BMP180;48128;54.242;10.280;2022-10-18T06:36:18;101974.00;;;12.10
25514;BMP180;48128;54.242;10.280;2022-10-18T06:38:50;101981.00;;;12.10
25514;BMP180;48128;54.242;10.280;2022-10-18T06:41:17;101972.00;;;12.10
25514;BMP180;48128;54.242;10.280;2022-10-18T06:43:52;101970.00;;;12.20
25514;BMP180;48128;54.242;10.280;2022-10-18T06:46:20;101969.00;;;12.20
25514;BMP180;48128;54.242;10.280;2022-10-18T06:48:47;101970.00;;;12.20
25514;BMP180;48128;54.242;10.280;2022-10-18T06:51:14;101976.00;;;12.20
25514;BMP180;48128;54.242;10.280;2022-10-18T06:53:41;101974.00;;;12.20
25514;BMP180;48128;54.242;10.280;2022-10-18T06:56:24;101971.00;;;12.30
25514;BMP180;48128;54.242;10.280;2022-10-18T06:58:51;101978.00;;;12.30
25514;BMP180;48128;54.242;10.280;2022-10-18T07:01:18;101997.00;;;12.30
25514;BMP180;48128;54.242;10.280;2022-10-18T07:03:47;101997.00;;;12.30
25514;BMP180;48128;54.242;10.280;2022-10-18T07:06:16;101996.00;;;12.30
25514;BMP180;48128;54.242;10.280;2022-10-18T07:08:43;102014.00;;;12.30
25514;BMP180;48128;54.242;10.280;2022-10-18T07:11:22;102017.00;;;12.40
25514;BMP180;48128;54.242;10.280;2022-10-18T07:13:50;102002.00;;;12.40
25514;BMP180;48128;54.242;10.280;2022-10-18T07:16:18;102004.00;;;12.40
25514;BMP180;48128;54.242;10.280;2022-10-18T07:18:47;101997.00;;;12.50
25514;BMP180;48128;54.242;10.280;2022-10-18T07:21:17;101991.00;;;12.50
25514;BMP180;48128;54.242;10.280;2022-10-18T07:23:53;101991.00;;;12.50
25514;BMP180;48128;54.242;10.280;2022-10-18T07:26:26;101992.00;;;12.50
25514;BMP180;48128;54.242;10.280;2022-10-18T07:29:09;102011.00;;;12.60
25514;BMP180;48128;54.242;10.280;2022-10-18T07:31:37;102013.00;;;12.60
25514;BMP180;48128;54.242;10.280;2022-10-18T07:34:09;102007.00;;;12.60
25514;BMP180;48128;54.242;10.280;2022-10-18T07:36:36;102006.00;;;12.60
25514;BMP180;48128;54.242;10.280;2022-10-18T07:39:03;102017.00;;;12.60
25514;BMP180;48128;54.242;10.280;2022-10-18T07:41:30;102022.00;;;12.70
25514;BMP180;48128;54.242;10.280;2022-10-18T07:43:59;102031.00;;;12.70
25514;BMP180;48128;54.242;10.280;2022-10-18T07:46:26;102034.00;;;12.70
25514;BMP180;48128;54.242;10.280;2022-10-18T07:48:57;102013.00;;;12.80
25514;BMP180;48128;54.242;10.280;2022-10-18T07:51:25;102032.00;;;12.80
25514;BMP180;48128;54.242;10.280;2022-10-18T07:53:59;102024.00;;;12.90
25514;BMP180;48128;54.242;10.280;2022-10-18T07:56:34;102020.00;;;12.90
25514;BMP180;48128;54.242;10.280;2022-10-18T07:59:01;102019.00;;;12.90
25514;BMP180;48128;54.242;10.280;2022-10-18T08:01:37;102030.00;;;13.00
25514;BMP180;48128;54.242;10.280;2022-10-18T08:04:04;102027.00;;;13.00
25514;BMP180;48128;54.242;10.280;2022-10-18T08:06:35;102026.00;;;13.00
25514;BMP180;48128;54.242;10.280;2022-10-18T08:09:11;102035.00;;;13.00
25514;BMP180;48128;54.242;10.280;2022-10-18T08:11:46;102037.00;;;13.00
25514;BMP180;48128;54.242;10.280;2022-10-18T08:14:52;102020.00;;;13.10
25514;BMP180;48128;54.242;10.280;2022-10-18T08:17:22;102033.00;;;13.10
25514;BMP180;48128;54.242;10.280;2022-10-18T08:19:52;102044.00;;;13.00
25514;BMP180;48128;54.242;10.280;2022-10-18T08:22:38;102026.00;;;13.10
25514;BMP180;48128;54.242;10.280;2022-10-18T08:25:05;102028.00;;;13.10
25514;BMP180;48128;54.242;10.280;2022-10-18T08:27:47;102028.00;;;13.10
25514;BMP180;48128;54.242;10.280;2022-10-18T08:30:14;102027.00;;;13.10
25514;BMP180;48128;54.242;10.280;2022-10-18T08:32:41;102027.00;;;13.10
25514;BMP180;48128;54.242;10.280;2022-10-18T08:35:10;102020.00;;;13.00
25514;BMP180;48128;54.242;10.280;2022-10-18T08:37:37;102033.00;;;13.00
25514;BMP180;48128;54.242;10.280;2022-10-18T08:40:05;102023.00;;;13.00
25514;BMP180;48128;54.242;10.280;2022-10-18T08:45:54;102015.00;;;13.00
25514;BMP180;48128;54.242;10.280;2022-10-18T08:48:39;102018.00;;;12.90
25514;BMP180;48128;54.242;10.280;2022-10-18T08:51:21;102018.00;;;12.90
25514;BMP180;48128;54.242;10.280;2022-10-18T08:57:00;102024.00;;;12.90
25514;BMP180;48128;54.242;10.280;2022-10-18T08:59:39;102026.00;;;12.90
25514;BMP180;48128;54.242;10.280;2022-10-18T09:07:59;102045.00;;;12.90
25514;BMP180;48128;54.242;10.280;2022-10-18T09:17:06;102047.00;;;13.10
25514;BMP180;48128;54.242;10.280;2022-10-18T09:19:58;102051.00;;;13.10
25514;BMP180;48128;54.242;10.280;2022-10-18T09:23:11;102045.00;;;13.20
25514;BMP180;48128;54.242;10.280;2022-10-18T09:29:11;102038.00;;;13.30
25514;BMP180;48128;54.242;10.280;2022-10-18T09:35:17;102041.00;;;13.50
25514;BMP180;48128;54.242;10.280;2022-10-18T09:40:56;102044.00;;;13.50
25514;BMP180;48128;54.242;10.280;2022-10-18T09:46:22;102050.00;;;13.50
25514;BMP180;48128;54.242;10.280;2022-10-18T09:48:57;102039.00;;;13.50
25514;BMP180;48128;54.242;10.280;2022-10-18T09:51:29;102035.00;;;13.50
25514;BMP180;48128;54.242;10.280;2022-10-18T09:54:16;102042.00;;;13.60
25514;BMP180;48128;54.242;10.280;2022-10-18T09:57:04;102033.00;;;13.80
25514;BMP180;48128;54.242;10.280;2022-10-18T09:59:44;102044.00;;;14.00
25514;BMP180;48128;54.242;10.280;2022-10-18T10:02:22;102046.00;;;14.30
25514;BMP180;48128;54.242;10.280;2022-10-18T10:04:51;102046.00;;;14.60
25514;BMP180;48128;54.242;10.280;2022-10-18T10:07:24;102056.00;;;14.80
25514;BMP180;48128;54.242;10.280;2022-10-18T10:12:35;102066.00;;;15.00
25514;BMP180;48128;54.242;10.280;2022-10-18T10:15:23;102082.00;;;15.00
25514;BMP180;48128;54.242;10.280;2022-10-18T10:18:14;102078.00;;;14.90
25514;BMP180;48128;54.242;10.280;2022-10-18T10:20:54;102076.00;;;14.70
25514;BMP180;48128;54.242;10.280;2022-10-18T10:28:48;102070.00;;;14.70
25514;BMP180;48128;54.242;10.280;2022-10-18T10:31:31;102058.00;;;14.80
25514;BMP180;48128;54.242;10.280;2022-10-18T10:36:49;102074.00;;;15.20
25514;BMP180;48128;54.242;10.280;2022-10-18T10:39:17;102079.00;;;15.40
25514;BMP180;48128;54.242;10.280;2022-10-18T10:41:48;102076.00;;;15.50
25514;BMP180;48128;54.242;10.280;2022-10-18T10:44:23;102089.00;;;15.70
25514;BMP180;48128;54.242;10.280;2022-10-18T10:46:51;102104.00;;;15.80
25514;BMP180;48128;54.242;10.280;2022-10-18T10:49:22;102081.00;;;15.90
25514;BMP180;48128;54.242;10.280;2022-10-18T10:52:15;102090.00;;;16.10
25514;BMP180;48128;54.242;10.280;2022-10-18T10:54:53;102096.00;;;16.10
25514;BMP180;48128;54.242;10.280;2022-10-18T10:57:43;102076.00;;;16.10
25514;BMP180;48128;54.242;10.280;2022-10-18T11:00:38;102091.00;;;15.90
25514;BMP180;48128;54.242;10.280;2022-10-18T11:03:18;102073.00;;;15.80
25514;BMP180;48128;54.242;10.280;2022-10-18T11:05:55;102050.00;;;15.90
25514;BMP180;48128;54.242;10.280;2022-10-18T11:08:37;102069.00;;;15.90
25514;BMP180;48128;54.242;10.280;2022-10-18T11:11:22;102060.00;;;16.00
25514;BMP180;48128;54.242;10.280;2022-10-18T11:22:20;102076.00;;;16.40
25514;BMP180;48128;54.242;10.280;2022-10-18T11:24:49;102083.00;;;16.60
25514;BMP180;48128;54.242;10.280;2022-10-18T11:28:02;102097.00;;;16.60
25514;BMP180;48128;54.242;10.280;2022-10-18T11:33:17;102102.00;;;16.70
25514;BMP180;48128;54.242;10.280;2022-10-18T11:36:17;102089.00;;;16.80
25514;BMP180;48128;54.242;10.280;2022-10-18T11:38:56;102100.00;;;16.70
25514;BMP180;48128;54.242;10.280;2022-10-18T11:41:42;102070.00;;;16.60
25514;BMP180;48128;54.242;10.280;2022-10-18T12:06:33;102054.00;;;16.10
25514;BMP180;48128;54.242;10.280;2022-10-18T12:30:26;102054.00;;;15.30
25514;BMP180;48128;54.242;10.280;2022-10-18T12:33:06;102045.00;;;15.20
25514;BMP180;48128;54.242;10.280;2022-10-18T12:39:21;102053.00;;;14.80
25514;BMP180;48128;54.242;10.280;2022-10-18T12:42:29;102034.00;;;15.00
25514;BMP180;48128;54.242;10.280;2022-10-18T12:48:06;102074.00;;;15.20
25514;BMP180;48128;54.242;10.280;2022-10-18T12:51:17;102099.00;;;15.20
25514;BMP180;48128;54.242;10.280;2022-10-18T12:54:15;102120.00;;;15.20
25514;BMP180;48128;54.242;10.280;2022-10-18T12:56:57;102114.00;;;15.20
25514;BMP180;48128;54.242;10.280;2022-10-18T12:59:47;102135.00;;;15.20
25514;BMP180;48128;54.242;10.280;2022-10-18T13:02:22;102127.00;;;15.30
25514;BMP180;48128;54.242;10.280;2022-10-18T13:04:56;102114.00;;;15.40
25514;BMP180;48128;54.242;10.280;2022-10-18T13:07:34;102114.00;;;15.50
25514;BMP180;48128;54.242;10.280;2022-10-18T13:17:55;102127.00;;;15.40
25514;BMP180;48128;54.242;10.280;2022-10-18T13:20:42;102144.00;;;15.40
25514;BMP180;48128;54.242;10.280;2022-10-18T13:23:37;102135.00;;;15.30
25514;BMP180;48128;54.242;10.280;2022-10-18T13:33:40;102128.00;;;15.00
25514;BMP180;48128;54.242;10.280;2022-10-18T13:46:21;102150.00;;;15.60
25514;BMP180;48128;54.242;10.280;2022-10-18T13:49:17;102158.00;;;15.80
25514;BMP180;48128;54.242;10.280;2022-10-18T13:54:36;102170.00;;;15.70
25514;BMP180;48128;54.242;10.280;2022-10-18T13:57:28;102171.00;;;15.70
25514;BMP180;48128;54.242;10.280;2022-10-18T14:03:01;102137.00;;;15.50
25514;BMP180;48128;54.242;10.280;2022-10-18T14:05:42;102146.00;;;15.30
25514;BMP180;48128;54.242;10.280;2022-10-18T14:08:36;102138.00;;;15.10
25514;BMP180;48128;54.242;10.280;2022-10-18T14:11:10;102128.00;;;15.00
25514;BMP180;48128;54.242;10.280;2022-10-18T14:14:14;102117.00;;;14.90
25514;BMP180;48128;54.242;10.280;2022-10-18T14:22:45;102110.00;;;14.70
25514;BMP180;48128;54.242;10.280;2022-10-18T14:28:08;102152.00;;;14.60
25514;BMP180;48128;54.242;10.280;2022-10-18T14:31:11;102140.00;;;14.60
25514;BMP180;48128;54.242;10.280;2022-10-18T14:36:21;102126.00;;;14.60
25514;BMP180;48128;54.242;10.280;2022-10-18T14:38:54;102146.00;;;14.50
25514;BMP180;48128;54.242;10.280;2022-10-18T14:41:27;102156.00;;;14.50
25514;BMP180;48128;54.242;10.280;2022-10-18T14:47:01;102141.00;;;14.50
25514;BMP180;48128;54.242;10.280;2022-10-18T14:49:28;102144.00;;;14.50
25514;BMP180;48128;54.242;10.280;2022-10-18T14:51:57;102131.00;;;14.40
25514;BMP180;48128;54.242;10.280;2022-10-18T14:54:27;102149.00;;;14.50
25514;BMP180;48128;54.242;10.280;2022-10-18T14:56:59;102122.00;;;14.50
25514;BMP180;48128;54.242;10.280;2022-10-18T14:59:39;102131.00;;;14.50
25514;BMP180;48128;54.242;10.280;2022-10-18T15:02:22;102131.00;;;14.50
25514;BMP180;48128;54.242;10.280;2022-10-18T15:05:07;102141.00;;;14.50
25514;BMP180;48128;54.242;10.280;2022-10-18T15:07:34;102111.00;;;14.50
25514;BMP180;48128;54.242;10.280;2022-10-18T15:10:03;102136.00;;;14.40
25514;BMP180;48128;54.242;10.280;2022-10-18T15:12:31;102116.00;;;14.30
25514;BMP180;48128;54.242;10.280;2022-10-18T15:15:17;102119.00;;;14.30
25514;BMP180;48128;54.242;10.280;2022-10-18T15:17:48;102135.00;;;14.30
25514;BMP180;48128;54.242;10.280;2022-10-18T15:20:20;102126.00;;;14.30
25514;BMP180;48128;54.242;10.280;2022-10-18T15:22:47;102135.00;;;14.20
25514;BMP180;48128;54.242;10.280;2022-10-18T15:25:17;102129.00;;;14.20
25514;BMP180;48128;54.242;10.280;2022-10-18T15:27:49;102133.00;;;14.20
25514;BMP180;48128;54.242;10.280;2022-10-18T15:33:02;102127.00;;;14.10
25514;BMP180;48128;54.242;10.280;2022-10-18T15:36:08;102148.00;;;14.10
25514;BMP180;48128;54.242;10.280;2022-10-18T15:38:36;102126.00;;;14.00
25514;BMP180;48128;54.242;10.280;2022-10-18T15:44:26;102110.00;;;14.00
25514;BMP180;48128;54.242;10.280;2022-10-18T15:47:07;102102.00;;;13.90
25514;BMP180;48128;54.242;10.280;2022-10-18T15:54:34;102106.00;;;13.80
25514;BMP180;48128;54.242;10.280;2022-10-18T15:57:10;102104.00;;;13.80
25514;BMP180;48128;54.242;10.280;2022-10-18T16:00:02;102111.00;;;13.80
25514;BMP180;48128;54.242;10.280;2022-10-18T16:02:30;102130.00;;;13.70
25514;BMP180;48128;54.242;10.280;2022-10-18T16:04:58;102134.00;;;13.70
25514;BMP180;48128;54.242;10.280;2022-10-18T16:07:25;102136.00;;;13.70
25514;BMP180;48128;54.242;10.280;2022-10-18T16:09:52;102152.00;;;13.60
25514;BMP180;48128;54.242;10.280;2022-10-18T16:12:19;102138.00;;;13.60
25514;BMP180;48128;54.242;10.280;2022-10-18T16:14:45;102119.00;;;13.60
25514;BMP180;48128;54.242;10.280;2022-10-18T16:17:12;102118.00;;;13.60
25514;BMP180;48128;54.242;10.280;2022-10-18T16:19:46;102109.00;;;13.60
25514;BMP180;48128;54.242;10.280;2022-10-18T16:22:13;102127.00;;;13.60
25514;BMP180;48128;54.242;10.280;2022-10-18T16:24:40;102119.00;;;13.60
25514;BMP180;48128;54.242;10.280;2022-10-18T16:27:08;102112.00;;;13.50
25514;BMP180;48128;54.242;10.280;2022-10-18T16:29:43;102113.00;;;13.50
25514;BMP180;48128;54.242;10.280;2022-10-18T16:32:10;102109.00;;;13.50
25514;BMP180;48128;54.242;10.280;2022-10-18T16:34:37;102113.00;;;13.50
25514;BMP180;48128;54.242;10.280;2022-10-18T16:37:04;102110.00;;;13.40
25514;BMP180;48128;54.242;10.280;2022-10-18T16:39:31;102107.00;;;13.40
25514;BMP180;48128;54.242;10.280;2022-10-18T16:42:00;102125.00;;;13.30
25514;BMP180;48128;54.242;10.280;2022-10-18T16:44:27;102126.00;;;13.30
25514;BMP180;48128;54.242;10.280;2022-10-18T16:47:02;102137.00;;;13.30
25514;BMP180;48128;54.242;10.280;2022-10-18T16:50:04;102118.00;;;13.30
25514;BMP180;48128;54.242;10.280;2022-10-18T16:57:26;102129.00;;;13.30
25514;BMP180;48128;54.242;10.280;2022-10-18T17:00:06;102113.00;;;13.30
25514;BMP180;48128;54.242;10.280;2022-10-18T17:02:41;102116.00;;;13.30
25514;BMP180;48128;54.242;10.280;2022-10-18T17:05:08;102125.00;;;13.20
25514;BMP180;48128;54.242;10.280;2022-10-18T17:07:35;102121.00;;;13.20
25514;BMP180;48128;54.242;10.280;2022-10-18T17:10:02;102130.00;;;13.20
25514;BMP180;48128;54.242;10.280;2022-10-18T17:12:30;102120.00;;;13.20
25514;BMP180;48128;54.242;10.280;2022-10-18T17:14:57;102120.00;;;13.20
25514;BMP180;48128;54.242;10.280;2022-10-18T17:17:28;102127.00;;;13.20
25514;BMP180;48128;54.242;10.280;2022-10-18T17:19:55;102126.00;;;13.20
25514;BMP180;48128;54.242;10.280;2022-10-18T17:22:22;102137.00;;;13.20
25514;BMP180;48128;54.242;10.280;2022-10-18T17:24:49;102130.00;;;13.20
25514;BMP180;48128;54.242;10.280;2022-10-18T17:27:16;102126.00;;;13.20
25514;BMP180;48128;54.242;10.280;2022-10-18T17:29:43;102132.00;;;13.20